Time;durP1;ratioP1;P1;durP2;ratioP2;P2;SDS_P1;SDS_P2;PMS_P1;PMS_P2;Temp;Humidity;BMP_temperature;BMP_pressure;BME280_temperature;BME280_humidity;BME280_pressure;Samples;Min_cycle;Max_cycle;Signal;HPM_P1;HPM_P2
2021/11/01 00:02:02;;;;;;;54.47;39.60;;;12.30;90.50;;;;;;5013666;28;20025;-76
2021/11/01 00:04:28;;;;;;;50.50;37.75;;;12.30;90.40;;;;;;5013404;28;20053;-76
2021/11/01 00:06:54;;;;;;;56.35;39.95;;;12.30;90.30;;;;;;5013575;28;20351;-76
2021/11/01 00:09:21;;;;;;;53.25;39.10;;;12.40;90.40;;;;;;5013403;28;20042;-76
2021/11/01 00:11:47;;;;;;;50.55;38.47;;;12.40;90.50;;;;;;5013354;28;20421;-75
2021/11/01 00:14:13;;;;;;;51.60;38.75;;;12.30;90.50;;;;;;5013050;28;20029;-76
2021/11/01 00:16:40;;;;;;;53.92;38.38;;;12.40;90.50;;;;;;5013444;28;20037;-76
2021/11/01 00:19:06;;;;;;;51.08;37.65;;;12.40;90.30;;;;;;5013374;28;20022;-77
2021/11/01 00:21:32;;;;;;;53.30;38.58;;;12.40;90.00;;;;;;5013484;28;20036;-76
2021/11/01 00:23:57;;;;;;;49.63;37.17;;;12.40;90.00;;;;;;5013861;28;20021;-75
2021/11/01 00:26:23;;;;;;;55.90;39.85;;;12.40;90.20;;;;;;5013874;28;20071;-76
2021/11/01 00:28:49;;;;;;;50.75;39.17;;;12.40;90.50;;;;;;5013249;28;20484;-72
2021/11/01 00:31:15;;;;;;;52.20;41.47;;;12.40;90.50;;;;;;5012754;28;20038;-72
2021/11/01 00:33:41;;;;;;;58.17;42.85;;;12.50;90.30;;;;;;5012921;28;20036;-72
2021/11/01 00:36:07;;;;;;;53.00;42.55;;;12.40;90.40;;;;;;5013241;28;20474;-75
2021/11/01 00:38:34;;;;;;;57.92;42.75;;;12.40;90.70;;;;;;5013412;28;20057;-75
2021/11/01 00:41:01;;;;;;;57.72;43.40;;;12.40;90.60;;;;;;5013066;28;20472;-77
2021/11/01 00:43:26;;;;;;;55.35;43.78;;;12.40;90.70;;;;;;5013146;28;20022;-75
2021/11/01 00:45:52;;;;;;;56.88;41.92;;;12.40;90.70;;;;;;5013146;28;20185;-76
2021/11/01 00:48:18;;;;;;;53.05;41.15;;;12.40;90.40;;;;;;5013051;28;20030;-75
2021/11/01 00:50:45;;;;;;;55.53;41.80;;;12.40;90.40;;;;;;5012896;28;20034;-76
2021/11/01 00:53:11;;;;;;;55.85;40.95;;;12.40;90.50;;;;;;5013010;28;20061;-76
2021/11/01 00:55:48;;;;;;;48.17;37.80;;;12.40;90.60;;;;;;5013282;28;20064;-77
2021/11/01 00:58:15;;;;;;;49.10;39.20;;;12.40;90.40;;;;;;5013078;28;20026;-75
2021/11/01 01:00:41;;;;;;;53.47;41.60;;;12.40;90.40;;;;;;5012855;28;20593;-76
2021/11/01 01:03:09;;;;;;;53.15;41.33;;;12.40;90.50;;;;;;5011394;28;20104;-76
2021/11/01 01:05:34;;;;;;;52.72;40.53;;;12.40;90.50;;;;;;5012723;28;20061;-75
2021/11/01 01:08:00;;;;;;;48.75;40.33;;;12.40;90.50;;;;;;5013132;28;20026;-76
2021/11/01 01:10:26;;;;;;;58.45;40.38;;;12.40;90.60;;;;;;5012957;28;20172;-76
2021/11/01 01:12:51;;;;;;;48.20;38.20;;;12.40;90.80;;;;;;5013146;28;20030;-76
2021/11/01 01:15:21;;;;;;;51.75;41.17;;;12.40;90.90;;;;;;5012550;28;20055;-76
2021/11/01 01:17:47;;;;;;;54.60;42.08;;;12.40;90.80;;;;;;5012763;28;20409;-76
2021/11/01 01:20:15;;;;;;;50.05;41.25;;;12.40;90.80;;;;;;5012917;28;20553;-76
2021/11/01 01:22:42;;;;;;;50.95;42.30;;;12.30;90.70;;;;;;5011383;28;20022;-75
2021/11/01 01:25:20;;;;;;;54.92;42.42;;;12.30;90.70;;;;;;5012780;28;20041;-75
2021/11/01 01:27:48;;;;;;;57.60;43.70;;;12.30;90.70;;;;;;5011390;28;20037;-76
2021/11/01 01:30:14;;;;;;;53.88;42.72;;;12.30;90.80;;;;;;5012706;28;20125;-76
2021/11/01 01:32:41;;;;;;;48.55;40.00;;;12.30;90.80;;;;;;5012488;28;20033;-76
2021/11/01 01:35:08;;;;;;;50.67;41.58;;;12.30;90.90;;;;;;5012985;28;20038;-76
2021/11/01 01:37:34;;;;;;;51.28;39.60;;;12.30;90.90;;;;;;5011471;28;20377;-76
2021/11/01 01:40:00;;;;;;;57.67;42.00;;;12.30;90.90;;;;;;5012572;28;20025;-76
2021/11/01 01:42:26;;;;;;;56.67;40.13;;;12.30;90.80;;;;;;5012672;28;20046;-76
2021/11/01 01:44:52;;;;;;;57.08;39.75;;;12.30;90.60;;;;;;5015578;28;20033;-75
2021/11/01 01:47:18;;;;;;;61.00;40.03;;;12.30;90.50;;;;;;5015936;28;20038;-76
2021/11/01 01:49:44;;;;;;;55.63;39.38;;;12.30;90.30;;;;;;5016282;28;20123;-76
2021/11/01 01:52:10;;;;;;;56.10;39.08;;;12.30;90.20;;;;;;5016004;28;20049;-76
2021/11/01 01:54:36;;;;;;;52.30;37.67;;;12.40;90.20;;;;;;5016225;28;20029;-77
2021/11/01 01:57:03;;;;;;;54.33;37.95;;;12.40;90.20;;;;;;5015893;28;20048;-76
2021/11/01 01:59:29;;;;;;;54.15;37.92;;;12.30;90.10;;;;;;5012670;28;20108;-76
2021/11/01 02:01:55;;;;;;;54.80;36.53;;;12.40;90.00;;;;;;5013120;28;20444;-77
2021/11/01 02:04:24;;;;;;;48.28;35.55;;;12.40;89.80;;;;;;5013619;28;20065;-76
2021/11/01 02:07:09;;;;;;;50.75;37.25;;;12.40;89.70;;;;;;5015744;28;20429;-77
2021/11/01 02:09:41;;;;;;;56.03;36.47;;;12.40;89.50;;;;;;5015544;28;20037;-76
2021/11/01 02:12:12;;;;;;;56.08;38.25;;;12.50;89.30;;;;;;5015395;28;20025;-76
2021/11/01 02:14:53;;;;;;;49.10;35.22;;;12.50;89.30;;;;;;5015136;28;20049;-76
2021/11/01 02:17:26;;;;;;;47.55;34.92;;;12.40;89.40;;;;;;5015258;28;20037;-76
2021/11/01 02:19:55;;;;;;;47.95;35.00;;;12.40;89.80;;;;;;5015570;28;20037;-76
2021/11/01 02:22:58;;;;;;;46.58;35.67;;;12.50;89.80;;;;;;5015137;28;20494;-77
2021/11/01 02:25:48;;;;;;;46.13;34.92;;;12.40;89.80;;;;;;5015508;28;20096;-76
2021/11/01 02:28:18;;;;;;;42.63;33.08;;;12.50;90.00;;;;;;5015276;28;20565;-76
2021/11/01 02:30:44;;;;;;;43.17;34.50;;;12.40;90.10;;;;;;5015256;28;20041;-76
2021/11/01 02:33:13;;;;;;;43.70;33.42;;;12.40;90.20;;;;;;5015253;28;20113;-77
2021/11/01 02:35:39;;;;;;;43.38;35.40;;;12.40;90.20;;;;;;5014993;28;20041;-76
2021/11/01 02:38:06;;;;;;;45.03;34.75;;;12.40;90.40;;;;;;5015054;28;20041;-76
2021/11/01 02:40:34;;;;;;;48.22;36.17;;;12.40;90.20;;;;;;5015111;28;20034;-76
2021/11/01 02:43:00;;;;;;;47.20;35.85;;;12.40;90.10;;;;;;5014875;28;20482;-76
2021/11/01 02:45:26;;;;;;;50.83;36.10;;;12.40;90.10;;;;;;5014952;28;20131;-75
2021/11/01 02:47:52;;;;;;;46.60;34.17;;;12.40;90.00;;;;;;5013556;28;20028;-77
2021/11/01 02:50:19;;;;;;;48.10;36.83;;;12.40;90.10;;;;;;5014605;28;20046;-77
2021/11/01 02:52:45;;;;;;;46.60;34.65;;;12.40;90.20;;;;;;5014938;28;20513;-77
2021/11/01 02:55:14;;;;;;;46.85;35.92;;;12.40;90.10;;;;;;5013864;28;20026;-77
2021/11/01 02:57:42;;;;;;;46.58;35.83;;;12.50;90.10;;;;;;5014521;28;20485;-76
2021/11/01 03:00:10;;;;;;;52.65;36.58;;;12.50;90.10;;;;;;5014813;28;20061;-75
2021/11/01 03:02:36;;;;;;;44.50;33.92;;;12.40;90.00;;;;;;5014862;28;20025;-76
2021/11/01 03:05:11;;;;;;;45.03;34.53;;;12.40;90.00;;;;;;5013150;28;20486;-75
2021/11/01 03:07:39;;;;;;;44.35;34.65;;;12.50;90.10;;;;;;5014654;28;20022;-76
2021/11/01 03:10:07;;;;;;;46.95;34.40;;;12.50;90.00;;;;;;5014422;28;20386;-75
2021/11/01 03:12:33;;;;;;;49.00;34.78;;;12.50;87.80;;;;;;5014676;28;20029;-75
2021/11/01 03:15:05;;;;;;;44.10;34.45;;;12.50;88.60;;;;;;5014220;28;20482;-74
2021/11/01 03:17:36;;;;;;;53.42;37.15;;;12.40;90.00;;;;;;5014408;28;20041;-75
2021/11/01 03:20:10;;;;;;;47.30;36.22;;;12.40;89.80;;;;;;5014524;28;20040;-76
2021/11/01 03:22:39;;;;;;;45.28;35.17;;;12.40;89.90;;;;;;5014259;28;20022;-76
2021/11/01 03:25:27;;;;;;;49.50;35.80;;;12.40;90.00;;;;;;5014061;28;20022;-76
2021/11/01 03:27:54;;;;;;;46.35;33.78;;;12.40;90.00;;;;;;5015213;28;20038;-76
2021/11/01 03:30:21;;;;;;;45.72;34.60;;;12.40;89.90;;;;;;5014304;28;20069;-75
2021/11/01 03:32:48;;;;;;;48.30;35.72;;;12.30;90.00;;;;;;5013756;28;20014;-76
2021/11/01 03:35:16;;;;;;;45.65;34.60;;;12.30;90.00;;;;;;5014049;28;20040;-76
2021/11/01 03:37:44;;;;;;;44.10;34.58;;;12.30;89.90;;;;;;5014205;28;20470;-74
2021/11/01 03:40:15;;;;;;;46.53;33.90;;;12.30;89.80;;;;;;5014126;28;20105;-76
2021/11/01 03:42:42;;;;;;;47.10;34.35;;;12.40;89.80;;;;;;5014152;28;20386;-76
2021/11/01 03:45:10;;;;;;;50.08;34.78;;;12.40;90.10;;;;;;5013809;28;20033;-76
2021/11/01 03:47:41;;;;;;;40.67;31.70;;;12.40;90.20;;;;;;5014014;28;20379;-76
2021/11/01 03:50:17;;;;;;;45.47;34.47;;;12.30;90.20;;;;;;5013914;28;20041;-76
2021/11/01 03:52:45;;;;;;;43.55;33.90;;;12.30;90.10;;;;;;5013870;28;20040;-76
2021/11/01 03:55:11;;;;;;;45.20;33.28;;;12.30;90.00;;;;;;5014008;28;20030;-75
2021/11/01 03:57:37;;;;;;;44.17;33.47;;;12.30;90.00;;;;;;5013814;28;20076;-76
2021/11/01 04:00:07;;;;;;;43.30;32.00;;;12.40;90.00;;;;;;5013703;28;20029;-76
2021/11/01 04:02:33;;;;;;;44.67;32.78;;;12.30;89.60;;;;;;5013606;28;20033;-75
2021/11/01 04:05:02;;;;;;;40.63;31.92;;;12.40;89.50;;;;;;5013155;28;20049;-75
2021/11/01 04:07:30;;;;;;;42.25;33.15;;;12.40;89.20;;;;;;5013441;28;20457;-76
2021/11/01 04:09:55;;;;;;;45.38;33.47;;;12.40;89.00;;;;;;5013634;28;20092;-76
2021/11/01 04:12:21;;;;;;;41.40;31.65;;;12.40;89.00;;;;;;5013653;28;20421;-76
2021/11/01 04:14:54;;;;;;;39.40;30.75;;;12.40;89.10;;;;;;5013366;28;20433;-75
2021/11/01 04:17:44;;;;;;;40.88;31.48;;;12.40;89.10;;;;;;5013427;28;20022;-76
2021/11/01 04:22:47;;;;;;;43.42;30.85;;;12.40;89.10;;;;;;5013660;28;20561;-75
2021/11/01 04:25:13;;;;;;;40.35;30.98;;;12.40;88.90;;;;;;5013808;28;20030;-77
2021/11/01 04:27:38;;;;;;;39.42;30.83;;;12.40;88.90;;;;;;5013580;28;20097;-71
2021/11/01 04:30:07;;;;;;;40.53;31.80;;;12.40;88.90;;;;;;5013773;28;20038;-74
2021/11/01 04:32:36;;;;;;;38.00;30.90;;;12.40;88.50;;;;;;5013625;28;20018;-72
2021/11/01 04:35:09;;;;;;;39.35;31.33;;;12.40;88.40;;;;;;5013646;28;20034;-76
2021/11/01 04:37:35;;;;;;;41.28;31.88;;;12.40;88.20;;;;;;5013583;28;20459;-76
2021/11/01 04:40:28;;;;;;;44.97;31.13;;;12.40;88.30;;;;;;5013562;28;20038;-75
2021/11/01 04:43:09;;;;;;;39.90;30.77;;;12.50;88.20;;;;;;5013161;28;20367;-76
2021/11/01 04:53:50;;;;;;;42.95;29.63;;;12.50;87.90;;;;;;5013644;28;20053;-75
2021/11/01 04:56:21;;;;;;;41.88;30.90;;;12.50;88.10;;;;;;5013352;28;20045;-72
2021/11/01 04:58:47;;;;;;;39.83;31.67;;;12.50;88.60;;;;;;5013085;28;20022;-72
2021/11/01 05:01:15;;;;;;;42.03;31.63;;;12.40;88.70;;;;;;5013240;28;20022;-73
2021/11/01 05:03:43;;;;;;;39.15;30.90;;;12.50;88.90;;;;;;5013262;28;20025;-72
2021/11/01 05:06:10;;;;;;;40.75;30.67;;;12.50;88.70;;;;;;5013201;28;20077;-76
2021/11/01 05:08:50;;;;;;;42.45;30.92;;;12.50;88.40;;;;;;5012715;28;20494;-77
2021/11/01 05:11:33;;;;;;;42.13;30.20;;;12.50;88.30;;;;;;5013102;28;20036;-76
2021/11/01 05:14:00;;;;;;;40.83;31.55;;;12.50;88.60;;;;;;5012702;28;20034;-76
2021/11/01 05:16:40;;;;;;;38.83;31.33;;;12.50;88.90;;;;;;5013075;28;20108;-75
2021/11/01 05:19:27;;;;;;;40.80;29.58;;;12.50;88.60;;;;;;5014861;28;20026;-76
2021/11/01 05:24:28;;;;;;;39.08;29.63;;;12.50;88.70;;;;;;5016603;28;20033;-75
2021/11/01 05:27:10;;;;;;;40.35;31.45;;;12.50;88.60;;;;;;5016983;28;20018;-77
2021/11/01 05:29:35;;;;;;;38.35;30.20;;;12.50;88.00;;;;;;5016611;28;20128;-77
2021/11/01 05:32:35;;;;;;;36.38;29.27;;;12.50;88.50;;;;;;5016425;28;20548;-77
2021/11/01 05:34:53;;;;;;;43.30;31.50;;;12.50;88.90;;;;;;5016085;28;20030;-77
2021/11/01 05:37:19;;;;;;;39.15;30.38;;;12.60;88.90;;;;;;5016305;28;20072;-76
2021/11/01 05:39:44;;;;;;;35.25;29.92;;;12.60;88.50;;;;;;5016631;28;20057;-76
2021/11/01 05:42:10;;;;;;;37.28;31.05;;;12.50;89.10;;;;;;5016391;28;20021;-77
2021/11/01 05:44:36;;;;;;;40.17;32.50;;;12.50;89.60;;;;;;5016128;28;20044;-76
2021/11/01 05:47:05;;;;;;;40.75;31.85;;;12.50;89.70;;;;;;5016055;28;20065;-76
2021/11/01 05:49:31;;;;;;;38.97;30.40;;;12.50;89.50;;;;;;5016106;28;20044;-76
2021/11/01 05:51:57;;;;;;;41.10;31.02;;;12.50;89.70;;;;;;5016031;28;20385;-76
2021/11/01 05:54:26;;;;;;;43.42;34.25;;;12.40;90.00;;;;;;5016107;28;20398;-77
2021/11/01 05:57:03;;;;;;;43.00;33.72;;;12.40;89.80;;;;;;5015684;28;20022;-77
2021/11/01 06:05:16;;;;;;;44.35;34.55;;;12.40;90.20;;;;;;5015761;28;20533;-76
2021/11/01 06:15:49;;;;;;;38.05;31.30;;;12.40;90.20;;;;;;5015889;28;20413;-77
2021/11/01 06:18:15;;;;;;;39.67;31.45;;;12.40;90.20;;;;;;5015585;28;20033;-76
2021/11/01 06:20:41;;;;;;;41.47;33.08;;;12.40;90.10;;;;;;5015354;28;20032;-77
2021/11/01 06:23:07;;;;;;;43.22;33.80;;;12.40;90.00;;;;;;5015327;28;20100;-77
2021/11/01 06:25:33;;;;;;;44.70;32.72;;;12.40;90.00;;;;;;5015569;28;20022;-76
2021/11/01 06:27:59;;;;;;;41.00;32.85;;;12.50;90.00;;;;;;5015295;28;20072;-75
2021/11/01 06:30:29;;;;;;;41.08;34.60;;;12.50;90.00;;;;;;5013865;28;20044;-75
2021/11/01 06:41:03;;;;;;;43.33;36.20;;;12.50;90.10;;;;;;5015606;28;20033;-76
2021/11/01 06:43:56;;;;;;;41.33;35.30;;;12.50;90.10;;;;;;5014520;28;20099;-75
2021/11/01 06:52:01;;;;;;;43.95;35.25;;;12.50;90.10;;;;;;5013204;28;20037;-76
2021/11/01 07:20:33;;;;;;;47.95;34.88;;;12.50;83.10;;;;;;5013892;28;20022;-72
2021/11/01 08:20:58;;;;;;;39.72;30.52;;;12.90;80.10;;;;;;5013464;28;20037;-71
2021/11/01 08:23:38;;;;;;;34.45;28.38;;;13.00;80.00;;;;;;5013160;28;20046;-71
2021/11/01 08:50:03;;;;;;;34.55;28.70;;;13.30;85.30;;;;;;5013079;28;20045;-72
2021/11/01 09:06:09;;;;;;;43.47;31.70;;;13.20;80.60;;;;;;5016866;28;20058;-71
2021/11/01 09:26:53;;;;;;;43.85;35.40;;;13.10;83.90;;;;;;5016536;28;20076;-71
2021/11/01 09:43:08;;;;;;;45.22;34.30;;;13.10;85.90;;;;;;5016562;28;20124;-71
2021/11/01 09:45:37;;;;;;;40.58;32.50;;;13.30;87.50;;;;;;5015533;28;20026;-71
2021/11/01 09:48:05;;;;;;;41.08;31.50;;;13.30;87.80;;;;;;5013340;28;20084;-70
2021/11/01 09:50:31;;;;;;;40.28;33.63;;;13.30;87.80;;;;;;5012430;28;20045;-71
2021/11/01 09:53:01;;;;;;;40.90;32.58;;;13.20;88.30;;;;;;5015011;28;20393;-71
2021/11/01 10:00:52;;;;;;;44.33;35.25;;;13.10;88.40;;;;;;5015308;28;20103;-71
2021/11/01 10:03:30;;;;;;;45.17;34.47;;;13.10;91.20;;;;;;5015374;28;20446;-70
2021/11/01 10:05:58;;;;;;;46.13;36.08;;;13.10;90.90;;;;;;5014679;28;20056;-71
2021/11/01 10:08:24;;;;;;;43.05;33.70;;;13.20;90.90;;;;;;5013713;28;20032;-71
2021/11/01 10:10:50;;;;;;;42.10;35.30;;;13.10;91.10;;;;;;5012902;28;20481;-70
2021/11/01 10:13:16;;;;;;;47.22;36.53;;;13.20;91.10;;;;;;5014222;28;20029;-70
2021/11/01 10:18:28;;;;;;;43.90;35.85;;;13.20;90.90;;;;;;5015887;28;20393;-72
2021/11/01 10:20:59;;;;;;;44.97;36.00;;;13.20;91.30;;;;;;5015641;28;20036;-71
2021/11/01 10:23:33;;;;;;;43.58;34.20;;;13.20;91.30;;;;;;5015519;28;20026;-71
2021/11/01 10:26:16;;;;;;;42.92;34.88;;;13.20;91.70;;;;;;5015534;28;20022;-72
2021/11/01 10:28:45;;;;;;;46.20;36.22;;;13.20;91.00;;;;;;5015555;28;20470;-71
2021/11/01 10:31:14;;;;;;;44.75;35.45;;;13.20;90.70;;;;;;5015401;28;20037;-71
2021/11/01 10:33:45;;;;;;;43.10;34.40;;;13.20;90.60;;;;;;5015258;28;20024;-71
2021/11/01 10:36:24;;;;;;;44.40;35.28;;;13.20;90.80;;;;;;5015312;28;20022;-72
2021/11/01 10:39:08;;;;;;;45.67;35.88;;;13.20;90.60;;;;;;5015072;28;20080;-71
2021/11/01 10:41:44;;;;;;;54.88;39.17;;;13.20;90.50;;;;;;5015093;28;20109;-71
2021/11/01 10:44:46;;;;;;;55.97;40.75;;;13.20;90.40;;;;;;5015249;28;20022;-72
2021/11/01 11:14:18;;;;;;;48.25;34.70;;;13.10;89.50;;;;;;5014799;28;20022;-72
2021/11/01 11:32:50;;;;;;;46.25;35.72;;;13.10;89.00;;;;;;5014478;28;20057;-72
2021/11/01 11:49:09;;;;;;;40.78;32.53;;;13.10;87.70;;;;;;5011788;28;20470;-71
2021/11/01 11:51:53;;;;;;;40.03;30.75;;;13.10;87.90;;;;;;5013930;28;20029;-72
2021/11/01 11:54:43;;;;;;;42.03;33.55;;;13.10;87.70;;;;;;5012709;28;20060;-71
2021/11/01 11:57:25;;;;;;;38.83;31.23;;;13.10;87.50;;;;;;5012230;28;20486;-72
2021/11/01 11:59:53;;;;;;;40.72;30.33;;;13.10;87.90;;;;;;5013210;28;20061;-72
2021/11/01 12:02:41;;;;;;;37.33;29.17;;;13.10;88.50;;;;;;5012459;28;20073;-71
2021/11/01 12:05:18;;;;;;;35.72;28.63;;;13.10;89.30;;;;;;5012446;28;20045;-71
2021/11/01 12:08:08;;;;;;;38.13;28.75;;;13.00;89.30;;;;;;5012229;28;20026;-72
2021/11/01 12:13:56;;;;;;;32.80;27.13;;;13.00;90.00;;;;;;5012451;28;20037;-71
2021/11/01 12:19:24;;;;;;;38.80;30.83;;;13.00;90.80;;;;;;5013016;28;20069;-72
2021/11/01 12:21:51;;;;;;;41.42;31.95;;;13.00;90.90;;;;;;5012196;28;20117;-72
2021/11/01 12:24:23;;;;;;;35.25;28.95;;;13.00;90.80;;;;;;5011151;28;20122;-72
2021/11/01 12:27:10;;;;;;;35.00;27.55;;;13.00;91.10;;;;;;5012321;28;20029;-72
2021/11/01 12:29:37;;;;;;;30.17;25.70;;;13.00;91.00;;;;;;5011825;28;20091;-71
2021/11/01 12:32:10;;;;;;;28.42;24.83;;;13.00;90.90;;;;;;5011039;28;20045;-72
2021/11/01 12:34:46;;;;;;;33.10;26.25;;;13.00;90.70;;;;;;5011526;28;20042;-72
2021/11/01 12:37:24;;;;;;;33.60;26.30;;;13.00;90.70;;;;;;5011856;28;20030;-72
2021/11/01 12:40:17;;;;;;;26.10;22.70;;;13.00;90.90;;;;;;5013399;28;20026;-72
2021/11/01 12:58:54;;;;;;;16.73;14.73;;;13.00;90.50;;;;;;5011828;28;20041;-72
2021/11/01 13:01:21;;;;;;;16.85;15.00;;;13.00;90.40;;;;;;5012489;28;20088;-71
2021/11/01 13:03:58;;;;;;;20.38;17.10;;;13.00;90.60;;;;;;5012119;28;20032;-72
2021/11/01 13:09:08;;;;;;;23.15;19.65;;;13.00;90.10;;;;;;5012402;28;20034;-72
2021/11/01 13:11:54;;;;;;;23.58;20.77;;;13.00;90.20;;;;;;5012638;28;20030;-72
2021/11/01 13:20:04;;;;;;;25.17;21.08;;;13.10;90.00;;;;;;5012567;28;20096;-71
2021/11/01 13:22:32;;;;;;;22.98;19.80;;;13.10;89.90;;;;;;5012042;28;20030;-72
2021/11/01 13:25:12;;;;;;;23.48;18.75;;;13.10;90.20;;;;;;5012785;28;20022;-72
2021/11/01 13:38:58;;;;;;;18.55;16.52;;;12.90;91.40;;;;;;5012740;28;19927;-71
2021/11/01 13:41:30;;;;;;;20.08;15.57;;;13.00;90.90;;;;;;5014704;28;20037;-71
2021/11/01 13:44:12;;;;;;;18.50;16.58;;;13.00;91.00;;;;;;5014145;28;20049;-71
2021/11/01 13:46:44;;;;;;;16.60;14.60;;;13.00;91.20;;;;;;5014295;28;20022;-71
2021/11/01 13:49:10;;;;;;;16.83;15.13;;;12.90;91.30;;;;;;5013534;28;20033;-72
2021/11/01 13:51:36;;;;;;;19.77;17.67;;;13.00;91.40;;;;;;5010705;28;20029;-72
2021/11/01 13:56:56;;;;;;;21.00;17.20;;;13.00;91.60;;;;;;5015133;28;20041;-72
2021/11/01 14:03:03;;;;;;;19.02;16.48;;;13.00;91.70;;;;;;5014076;28;20030;-72
2021/11/01 16:18:34;;;;;;;13.43;11.65;;;13.40;92.20;;;;;;5034743;28;20029;-71
2021/11/01 16:21:00;;;;;;;16.90;11.32;;;13.40;92.40;;;;;;5036046;28;20071;-71
2021/11/01 16:23:36;;;;;;;15.18;11.63;;;13.50;92.10;;;;;;5035353;28;20025;-71
2021/11/01 16:26:18;;;;;;;14.02;11.57;;;13.50;92.30;;;;;;5035503;28;20072;-71
2021/11/01 16:28:45;;;;;;;14.15;12.48;;;13.50;92.10;;;;;;5035688;28;20021;-71
2021/11/01 16:33:46;;;;;;;16.10;12.05;;;13.50;92.00;;;;;;5035856;28;20025;-71
2021/11/01 16:36:25;;;;;;;15.05;12.40;;;13.70;94.20;;;;;;5035677;28;20025;-71
2021/11/01 16:38:55;;;;;;;18.23;12.85;;;13.60;92.30;;;;;;5035382;28;20466;-71
2021/11/01 16:41:22;;;;;;;14.15;11.88;;;13.60;92.50;;;;;;5035520;28;20084;-71
2021/11/01 16:43:49;;;;;;;18.13;13.85;;;13.60;92.60;;;;;;5035773;28;20385;-70
2021/11/01 16:46:15;;;;;;;14.55;12.38;;;13.60;92.70;;;;;;5035411;28;20084;-70
2021/11/01 16:48:44;;;;;;;15.23;12.38;;;13.50;92.40;;;;;;5035342;28;20124;-71
2021/11/01 16:51:13;;;;;;;18.08;13.13;;;13.50;92.20;;;;;;5035165;28;20378;-71
2021/11/01 16:53:42;;;;;;;18.45;13.50;;;13.50;92.00;;;;;;5035513;28;20084;-71
2021/11/01 16:56:34;;;;;;;17.15;14.35;;;13.50;92.10;;;;;;5035330;28;20021;-71
2021/11/01 16:59:04;;;;;;;21.13;14.20;;;13.60;92.00;;;;;;5034805;28;20045;-73
2021/11/01 17:01:30;;;;;;;16.65;13.93;;;13.60;92.00;;;;;;5035150;28;20018;-71
2021/11/01 17:04:02;;;;;;;20.15;14.48;;;13.60;91.80;;;;;;5034928;28;20088;-70
2021/11/01 17:06:39;;;;;;;19.85;15.70;;;13.60;91.60;;;;;;5035150;28;20041;-71
2021/11/01 17:23:22;;;;;;;23.38;15.90;;;13.70;91.70;;;;;;5034780;28;20040;-70
2021/11/01 17:26:59;;;;;;;20.60;14.48;;;13.70;91.70;;;;;;5034802;28;20041;-71
2021/11/01 17:29:37;;;;;;;17.80;14.95;;;13.70;92.00;;;;;;5032988;28;20367;-71
2021/11/01 18:41:15;;;;;;;19.35;15.68;;;13.90;93.80;;;;;;5033214;28;20044;-71
2021/11/01 18:52:07;;;;;;;19.55;14.65;;;13.80;94.80;;;;;;5033329;28;20080;-71
2021/11/01 18:54:37;;;;;;;17.90;14.52;;;13.80;95.40;;;;;;5031935;28;20120;-72
2021/11/01 18:57:04;;;;;;;16.13;13.90;;;13.80;95.70;;;;;;5033140;28;20096;-72
2021/11/01 18:59:34;;;;;;;16.88;12.77;;;13.80;96.20;;;;;;5032975;28;20037;-71
2021/11/01 19:05:00;;;;;;;17.63;12.80;;;13.80;96.20;;;;;;5031487;28;20379;-71
2021/11/01 20:11:02;;;;;;;10.95;7.68;;;13.40;92.80;;;;;;5035903;28;20052;-72
2021/11/01 20:13:46;;;;;;;10.60;8.35;;;13.40;92.90;;;;;;5035079;28;20037;-72
2021/11/01 21:26:33;;;;;;;3.28;2.97;;;13.50;97.90;;;;;;5033443;28;20063;-76
2021/11/01 21:28:58;;;;;;;4.15;3.08;;;13.50;98.00;;;;;;5033528;28;20021;-76
2021/11/01 21:31:24;;;;;;;3.38;2.78;;;13.60;98.10;;;;;;5034629;28;20032;-72
2021/11/01 21:33:54;;;;;;;3.38;2.50;;;13.60;98.40;;;;;;5033824;28;20025;-75
2021/11/01 21:36:25;;;;;;;2.55;2.20;;;13.60;98.00;;;;;;5032205;28;20556;-75
2021/11/01 21:38:53;;;;;;;2.08;1.88;;;13.70;97.60;;;;;;5033896;28;20017;-73
2021/11/01 21:41:19;;;;;;;3.63;2.30;;;13.70;97.40;;;;;;5033126;28;20031;-74
2021/11/01 21:43:44;;;;;;;2.80;1.90;;;13.80;97.20;;;;;;5032580;28;20029;-72
2021/11/01 21:46:10;;;;;;;4.20;2.28;;;13.80;97.00;;;;;;5032939;28;20076;-75
2021/11/01 21:48:36;;;;;;;3.03;2.10;;;13.80;96.80;;;;;;5033141;28;20029;-74
2021/11/01 21:51:02;;;;;;;3.63;2.10;;;13.80;97.00;;;;;;5033370;28;20029;-76
2021/11/01 21:53:29;;;;;;;4.28;1.80;;;13.80;97.00;;;;;;5032989;28;20504;-76
2021/11/01 21:55:56;;;;;;;2.85;2.15;;;13.80;97.20;;;;;;5033369;28;20033;-74
2021/11/01 22:20:01;;;;;;;1.63;1.20;;;13.90;97.80;;;;;;5032227;28;20179;-74
2021/11/01 22:22:45;;;;;;;3.75;1.40;;;13.90;98.00;;;;;;5030032;28;20401;-73
2021/11/01 22:33:38;;;;;;;1.10;0.98;;;14.00;99.90;;;;;;5032956;28;20037;-76
2021/11/01 22:42:14;;;;;;;1.20;1.10;;;14.10;99.90;;;;;;5020977;28;20368;-75
2021/11/01 22:57:42;;;;;;;3.38;1.80;;;13.80;95.70;;;;;;5032824;28;20028;-72
2021/11/01 23:00:22;;;;;;;4.65;1.70;;;13.80;95.70;;;;;;5033200;28;20109;-74
2021/11/01 23:02:55;;;;;;;2.97;1.50;;;13.70;96.10;;;;;;5033108;28;20117;-74
2021/11/01 23:32:46;;;;;;;1.88;1.60;;;14.00;91.90;;;;;;5036876;28;20067;-74
2021/11/01 23:35:12;;;;;;;2.40;1.55;;;14.00;91.90;;;;;;5036865;28;20101;-74
2021/11/01 23:37:37;;;;;;;1.70;1.30;;;14.00;91.80;;;;;;5036450;28;20026;-74
2021/11/01 23:40:03;;;;;;;2.33;1.48;;;14.00;92.00;;;;;;5036602;28;20018;-74
2021/11/01 23:42:29;;;;;;;1.33;1.05;;;14.00;92.40;;;;;;5037012;28;20385;-74
2021/11/01 23:44:55;;;;;;;2.15;1.38;;;14.00;92.30;;;;;;5036586;28;20025;-73
2021/11/01 23:47:22;;;;;;;1.67;1.45;;;14.00;92.90;;;;;;5036132;28;20040;-73
2021/11/01 23:49:48;;;;;;;1.65;1.50;;;14.00;92.80;;;;;;5036266;28;20463;-72
2021/11/01 23:52:15;;;;;;;3.55;1.60;;;14.00;92.50;;;;;;5036532;28;20032;-74
2021/11/01 23:54:44;;;;;;;2.67;1.48;;;14.00;92.30;;;;;;5036567;28;20064;-73
2021/11/01 23:57:12;;;;;;;2.20;1.35;;;13.90;92.40;;;;;;5036226;28;20041;-75
2021/11/01 23:59:38;;;;;;;1.30;1.20;;;14.00;92.50;;;;;;5035246;28;20174;-74
